createdAt,value
2022-12-08T00:01:42.861Z,60.10
2022-12-08T00:04:11.549Z,65.90
2022-12-08T00:06:42.500Z,70.10
2022-12-08T00:09:14.886Z,72.40
2022-12-08T00:11:43.355Z,68.90
2022-12-08T00:14:11.746Z,64.30
2022-12-08T00:16:40.084Z,60.50
2022-12-08T00:19:08.307Z,62.20
2022-12-08T00:21:36.562Z,67.90
2022-12-08T00:24:05.121Z,70.70
2022-12-08T00:26:33.498Z,73.20
2022-12-08T00:29:02.511Z,67.00
2022-12-08T00:31:31.511Z,62.80
2022-12-08T00:33:59.601Z,61.90
2022-12-08T00:36:28.880Z,66.90
2022-12-08T00:38:57.923Z,71.10
2022-12-08T00:41:27.719Z,73.90
2022-12-08T00:43:55.914Z,67.90
2022-12-08T00:46:24.069Z,63.40
2022-12-08T00:48:52.572Z,60.00
2022-12-08T00:51:20.899Z,65.40
2022-12-08T00:53:49.372Z,69.30
2022-12-08T00:56:17.688Z,72.80
2022-12-08T00:58:46.136Z,71.40
2022-12-08T01:01:15.719Z,65.50
2022-12-08T01:03:44.947Z,61.50
2022-12-08T01:06:13.516Z,61.00
2022-12-08T01:08:42.515Z,67.00
2022-12-08T01:11:12.574Z,70.40
2022-12-08T01:13:41.315Z,73.00
2022-12-08T01:16:10.026Z,69.60
2022-12-08T01:18:38.328Z,64.00
2022-12-08T01:21:08.507Z,61.10
2022-12-08T01:23:36.914Z,62.80
2022-12-08T01:26:11.195Z,67.70
2022-12-08T01:28:40.049Z,71.10
2022-12-08T01:31:15.432Z,74.20
2022-12-08T01:33:44.677Z,68.40
2022-12-08T01:36:45.534Z,63.60
2022-12-08T01:39:18.671Z,59.40
2022-12-08T01:41:48.022Z,65.10
2022-12-08T01:44:16.257Z,69.90
2022-12-08T01:46:46.495Z,73.30
2022-12-08T01:49:26.919Z,72.50
2022-12-08T01:52:01.434Z,65.70
2022-12-08T01:54:35.246Z,61.30
2022-12-08T01:57:19.342Z,63.10
2022-12-08T02:00:12.860Z,68.20
2022-12-08T02:02:53.292Z,72.30
2022-12-08T02:05:25.155Z,74.60
2022-12-08T02:07:55.515Z,67.10
2022-12-08T02:10:25.394Z,63.20
2022-12-08T02:12:56.912Z,59.70
2022-12-08T02:15:37.829Z,65.90
2022-12-08T02:18:31.980Z,70.10
2022-12-08T02:21:24.025Z,74.00
2022-12-08T02:24:20.934Z,68.90
2022-12-08T02:27:23.071Z,63.20
2022-12-08T02:30:16.062Z,59.40
2022-12-08T02:33:05.723Z,65.90
2022-12-08T02:35:49.443Z,70.30
2022-12-08T02:38:36.050Z,74.10
2022-12-08T02:41:19.754Z,69.30
2022-12-08T02:44:20.733Z,63.20
2022-12-08T02:47:11.246Z,63.40
2022-12-08T02:49:39.630Z,68.70
2022-12-08T02:52:13.896Z,72.20
2022-12-08T02:55:06.431Z,73.70
2022-12-08T02:58:11.484Z,67.90
2022-12-08T03:01:07.524Z,62.40
2022-12-08T03:03:51.116Z,65.40
2022-12-08T03:06:53.430Z,70.50
2022-12-08T03:10:08.206Z,73.20
2022-12-08T03:12:50.896Z,71.60
2022-12-08T03:15:22.020Z,64.40
2022-12-08T03:17:57.662Z,60.50
2022-12-08T03:20:28.435Z,66.50
2022-12-08T03:23:00.821Z,70.70
2022-12-08T03:25:32.261Z,73.70
2022-12-08T03:28:01.124Z,72.90
2022-12-08T03:30:31.546Z,66.30
2022-12-08T03:33:04.410Z,61.80
2022-12-08T03:35:36.302Z,63.90
2022-12-08T03:38:07.764Z,68.30
2022-12-08T03:40:36.374Z,71.50
2022-12-08T03:43:05.119Z,74.10
2022-12-08T03:45:33.377Z,68.50
2022-12-08T03:48:01.620Z,63.30
2022-12-08T03:50:30.003Z,60.70
2022-12-08T03:52:58.241Z,66.80
2022-12-08T03:55:26.383Z,70.40
2022-12-08T03:57:54.538Z,73.20
2022-12-08T04:00:22.983Z,74.80
2022-12-08T04:02:51.173Z,67.20
2022-12-08T04:05:19.745Z,63.10
2022-12-08T04:07:47.984Z,63.50
2022-12-08T04:10:16.342Z,68.80
2022-12-08T04:12:44.662Z,71.80
2022-12-08T04:15:12.828Z,74.20
2022-12-08T04:17:41.050Z,71.50
2022-12-08T04:20:09.943Z,65.60
2022-12-08T04:22:38.262Z,61.40
2022-12-08T04:25:07.282Z,66.30
2022-12-08T04:27:35.420Z,70.60
2022-12-08T04:30:04.272Z,73.10
2022-12-08T04:32:32.338Z,74.40
2022-12-08T04:35:00.556Z,66.60
2022-12-08T04:37:29.547Z,62.50
2022-12-08T04:39:57.971Z,65.60
2022-12-08T04:42:26.150Z,69.20
2022-12-08T04:45:16.062Z,72.90
2022-12-08T04:47:44.335Z,75.20
2022-12-08T04:50:12.569Z,69.90
2022-12-08T04:52:40.975Z,64.50
2022-12-08T04:55:09.627Z,61.90
2022-12-08T04:57:37.987Z,67.70
2022-12-08T05:00:07.936Z,71.40
2022-12-08T05:02:36.683Z,74.30
2022-12-08T05:05:05.613Z,75.50
2022-12-08T05:07:34.008Z,67.30
2022-12-08T05:10:02.704Z,62.90
2022-12-08T05:12:31.272Z,63.90
2022-12-08T05:14:59.449Z,68.50
2022-12-08T05:17:27.681Z,72.30
2022-12-08T05:19:55.941Z,74.30
2022-12-08T05:22:24.230Z,73.00
2022-12-08T05:24:52.690Z,66.20
2022-12-08T05:27:20.965Z,62.20
2022-12-08T05:29:49.295Z,67.80
2022-12-08T05:32:17.976Z,71.60
2022-12-08T05:34:46.131Z,74.40
2022-12-08T05:37:14.525Z,73.70
2022-12-08T05:39:42.712Z,66.50
2022-12-08T05:42:11.019Z,62.20
2022-12-08T05:44:39.432Z,65.40
2022-12-08T05:47:07.545Z,69.60
2022-12-08T05:49:36.665Z,72.90
2022-12-08T05:52:05.312Z,75.20
2022-12-08T05:54:33.585Z,70.40
2022-12-08T05:57:02.047Z,64.50
2022-12-08T05:59:30.441Z,61.00
2022-12-08T06:01:58.818Z,66.70
2022-12-08T06:04:27.416Z,70.80
2022-12-08T06:06:55.734Z,73.70
2022-12-08T06:09:24.096Z,75.40
2022-12-08T06:11:52.544Z,67.40
2022-12-08T06:14:20.789Z,63.50
2022-12-08T06:16:49.205Z,64.20
2022-12-08T06:19:17.642Z,69.50
2022-12-08T06:21:46.271Z,72.40
2022-12-08T06:24:15.372Z,74.70
2022-12-08T06:26:43.654Z,73.70
2022-12-08T06:29:12.143Z,66.80
2022-12-08T06:31:40.895Z,62.20
2022-12-08T06:34:09.262Z,66.80
2022-12-08T06:36:37.704Z,70.10
2022-12-08T06:39:06.180Z,73.50
2022-12-08T06:41:34.635Z,75.30
2022-12-08T06:44:03.063Z,72.20
2022-12-08T06:46:31.293Z,66.40
2022-12-08T06:48:59.766Z,62.50
2022-12-08T06:51:28.077Z,67.30
2022-12-08T06:53:56.253Z,70.90
2022-12-08T06:56:24.481Z,73.40
2022-12-08T06:58:53.284Z,75.50
2022-12-08T07:01:22.034Z,71.40
2022-12-08T07:03:50.696Z,66.00
2022-12-08T07:06:25.148Z,61.90
2022-12-08T07:08:59.188Z,66.80
2022-12-08T07:11:28.476Z,71.10
2022-12-08T07:13:57.742Z,73.90
2022-12-08T07:16:26.197Z,76.70
2022-12-08T07:20:17.169Z,67.80
2022-12-08T07:22:53.569Z,71.10
2022-12-08T07:25:26.656Z,75.80
2022-12-08T07:27:56.255Z,71.20
2022-12-08T07:30:24.798Z,65.90
2022-12-08T07:32:53.282Z,61.60
2022-12-08T07:35:22.984Z,67.50
2022-12-08T07:37:53.058Z,71.60
2022-12-08T07:40:21.476Z,74.30
2022-12-08T07:42:49.579Z,76.50
2022-12-08T07:45:18.252Z,70.30
2022-12-08T07:47:46.569Z,65.40
2022-12-08T07:50:14.799Z,62.90
2022-12-08T07:52:44.832Z,68.50
2022-12-08T07:55:13.410Z,72.20
2022-12-08T07:57:41.952Z,74.60
2022-12-08T08:00:12.352Z,75.10
2022-12-08T08:02:40.935Z,67.90
2022-12-08T08:05:09.871Z,63.90
2022-12-08T08:07:42.662Z,64.60
2022-12-08T08:10:12.265Z,69.40
2022-12-08T08:12:41.752Z,72.30
2022-12-08T08:15:12.677Z,75.10
2022-12-08T08:17:44.785Z,72.60
2022-12-08T08:20:18.000Z,66.90
2022-12-08T08:22:51.450Z,62.90
2022-12-08T08:25:22.365Z,67.10
2022-12-08T08:27:50.978Z,70.00
2022-12-08T08:30:20.907Z,73.50
2022-12-08T08:32:51.450Z,75.90
2022-12-08T08:35:20.134Z,69.00
2022-12-08T08:37:49.565Z,64.50
2022-12-08T08:40:19.486Z,63.70
2022-12-08T08:42:47.602Z,68.50
2022-12-08T08:45:15.958Z,72.00
2022-12-08T08:47:44.323Z,74.50
2022-12-08T08:50:14.819Z,72.90
2022-12-08T08:52:46.317Z,67.00
2022-12-08T08:55:14.900Z,62.90
2022-12-08T08:57:43.273Z,63.80
2022-12-08T09:00:12.346Z,69.20
2022-12-08T09:02:40.446Z,72.80
2022-12-08T09:05:09.183Z,75.30
2022-12-08T09:07:40.284Z,71.60
2022-12-08T09:10:09.489Z,65.90
2022-12-08T09:12:37.909Z,62.50
2022-12-08T09:15:06.732Z,64.50
2022-12-08T09:17:34.983Z,69.30
2022-12-08T09:20:03.947Z,73.10
2022-12-08T09:22:32.588Z,75.50
2022-12-08T09:25:00.938Z,71.90
2022-12-08T09:27:30.503Z,66.30
2022-12-08T09:29:58.558Z,63.00
2022-12-08T09:32:28.409Z,65.10
2022-12-08T09:34:56.852Z,69.50
2022-12-08T09:37:25.023Z,73.40
2022-12-08T09:39:56.274Z,75.50
2022-12-08T09:42:58.245Z,71.90
2022-12-08T09:45:30.617Z,65.80
2022-12-08T09:48:05.001Z,62.00
2022-12-08T09:50:43.612Z,67.40
2022-12-08T09:53:37.318Z,71.80
2022-12-08T09:56:26.676Z,74.70
2022-12-08T09:59:11.174Z,73.10
2022-12-08T10:01:42.051Z,66.60
2022-12-08T10:04:30.145Z,63.40
2022-12-08T10:07:18.235Z,66.00
2022-12-08T10:10:18.172Z,70.40
2022-12-08T10:13:26.401Z,74.50
2022-12-08T10:16:08.513Z,71.60
2022-12-08T10:18:37.017Z,65.50
2022-12-08T10:21:22.176Z,62.90
2022-12-08T10:23:58.146Z,65.90
2022-12-08T10:26:27.978Z,70.50
2022-12-08T10:28:56.508Z,74.60
2022-12-08T10:31:27.461Z,74.70
2022-12-08T10:34:00.893Z,67.60
2022-12-08T10:36:52.789Z,64.00
2022-12-08T10:39:34.032Z,60.70
2022-12-08T10:42:10.135Z,67.30
2022-12-08T10:45:03.288Z,71.60
2022-12-08T10:47:44.645Z,75.50
2022-12-08T10:50:21.907Z,71.30
2022-12-08T10:52:59.922Z,65.80
2022-12-08T10:55:29.036Z,62.20
2022-12-08T10:57:56.948Z,67.30
2022-12-08T11:00:28.500Z,70.50
2022-12-08T11:03:03.759Z,74.50
2022-12-08T11:05:37.357Z,76.40
2022-12-08T11:08:06.488Z,68.60
2022-12-08T11:10:44.277Z,64.60
2022-12-08T11:13:28.146Z,61.70
2022-12-08T11:15:57.863Z,66.10
2022-12-08T11:18:39.867Z,71.00
2022-12-08T11:21:18.692Z,73.40
2022-12-08T11:23:51.045Z,76.30
2022-12-08T11:26:29.868Z,68.70
2022-12-08T11:28:58.703Z,64.80
2022-12-08T11:31:31.845Z,61.90
2022-12-08T11:34:01.279Z,67.80
2022-12-08T11:36:33.725Z,71.80
2022-12-08T11:39:05.543Z,75.10
2022-12-08T11:41:43.664Z,71.40
2022-12-08T11:44:30.888Z,66.50
2022-12-08T11:47:13.106Z,63.00
2022-12-08T11:52:32.494Z,69.10
2022-12-08T11:55:20.217Z,73.20
2022-12-08T11:57:51.408Z,75.80
2022-12-08T12:00:20.655Z,67.90
2022-12-08T12:02:56.278Z,64.30
2022-12-08T12:06:05.809Z,61.80
2022-12-08T12:09:15.321Z,66.20
2022-12-08T12:12:08.974Z,71.70
2022-12-08T12:15:12.344Z,74.90
2022-12-08T12:17:44.088Z,68.70
2022-12-08T12:20:22.858Z,65.20
2022-12-08T12:22:54.227Z,61.60
2022-12-08T12:25:25.911Z,64.60
2022-12-08T12:27:58.583Z,69.50
2022-12-08T12:30:32.461Z,73.50
2022-12-08T12:33:03.016Z,75.50
2022-12-08T12:35:39.678Z,69.30
2022-12-08T12:38:23.116Z,65.00
2022-12-08T12:40:51.666Z,62.00
2022-12-08T12:43:39.154Z,64.20
2022-12-08T12:46:31.473Z,69.40
2022-12-08T12:49:36.886Z,73.20
2022-12-08T12:52:06.590Z,73.60
2022-12-08T12:54:34.822Z,67.20
2022-12-08T12:57:06.197Z,64.30
2022-12-08T12:59:53.403Z,61.20
2022-12-08T13:02:52.871Z,64.80
2022-12-08T13:05:31.063Z,69.80
2022-12-08T13:08:02.537Z,73.50
2022-12-08T13:10:37.283Z,72.80
2022-12-08T13:13:11.530Z,66.60
2022-12-08T13:15:46.962Z,63.90
2022-12-08T13:18:35.876Z,61.90
2022-12-08T13:21:10.447Z,68.40
2022-12-08T13:23:39.004Z,72.90
2022-12-08T13:26:19.544Z,75.50
2022-12-08T13:29:00.037Z,69.40
2022-12-08T13:31:51.300Z,71.60
2022-12-08T13:34:42.344Z,76.60
2022-12-08T13:37:13.661Z,79.60
2022-12-08T13:40:00.007Z,81.50
2022-12-08T13:42:34.298Z,82.60
2022-12-08T13:45:24.522Z,84.30
2022-12-08T13:48:31.135Z,85.70
2022-12-08T13:55:35.551Z,87.40
2022-12-08T13:57:37.168Z,88.10
2022-12-08T14:00:16.363Z,88.40
2022-12-08T14:02:48.584Z,82.70
2022-12-08T14:05:29.784Z,75.90
2022-12-08T14:08:03.735Z,80.60
2022-12-08T14:10:33.473Z,83.70
2022-12-08T14:13:12.091Z,85.00
2022-12-08T14:15:40.517Z,86.80
2022-12-08T14:18:26.039Z,88.40
2022-12-08T14:23:52.101Z,88.70
2022-12-08T14:26:20.238Z,78.90
2022-12-08T14:28:50.751Z,77.90
2022-12-08T14:31:19.228Z,81.80
2022-12-08T14:33:51.852Z,84.20
2022-12-08T14:36:24.781Z,85.70
2022-12-08T14:38:56.494Z,87.90
2022-12-08T14:41:33.371Z,88.30
2022-12-08T14:44:02.967Z,88.80
2022-12-08T14:46:31.585Z,81.50
2022-12-08T14:49:00.020Z,75.20
2022-12-08T14:51:33.561Z,79.90
2022-12-08T14:54:15.871Z,82.90
2022-12-08T14:56:55.145Z,85.10
2022-12-08T14:59:34.780Z,87.00
2022-12-08T15:02:47.398Z,87.00
2022-12-08T15:05:19.748Z,88.60
2022-12-08T15:07:54.329Z,86.30
2022-12-08T15:10:23.240Z,77.60
2022-12-08T15:13:09.989Z,76.80
2022-12-08T15:15:49.368Z,81.20
2022-12-08T15:18:36.203Z,83.20
2022-12-08T15:21:12.139Z,85.20
2022-12-08T15:23:50.049Z,86.70
2022-12-08T15:26:28.467Z,88.80
2022-12-08T15:28:56.916Z,89.50
2022-12-08T15:31:25.432Z,81.10
2022-12-08T15:33:53.878Z,75.50
2022-12-08T15:36:22.102Z,80.20
2022-12-08T15:38:50.361Z,82.70
2022-12-08T15:41:18.595Z,84.60
2022-12-08T15:43:46.904Z,86.00
2022-12-08T15:46:15.477Z,88.00
2022-12-08T15:48:44.045Z,89.00
2022-12-08T15:51:12.332Z,82.80
2022-12-08T15:58:04.440Z,78.30
2022-12-08T16:00:51.149Z,80.60
2022-12-08T16:09:32.779Z,87.40
2022-12-08T16:12:07.107Z,85.80
2022-12-08T16:17:24.735Z,77.40
2022-12-08T16:19:53.000Z,81.00
2022-12-08T16:25:20.938Z,84.50
2022-12-08T16:28:05.489Z,87.00
2022-12-08T16:30:40.586Z,88.00
2022-12-08T16:33:10.015Z,78.30
2022-12-08T16:35:38.263Z,73.50
2022-12-08T16:38:06.458Z,78.90
2022-12-08T16:40:35.274Z,80.90
2022-12-08T16:43:03.334Z,83.00
2022-12-08T16:45:31.658Z,84.80
2022-12-08T16:48:01.536Z,86.50
2022-12-08T16:50:32.627Z,85.40
2022-12-08T16:53:04.273Z,76.70
2022-12-08T16:55:33.300Z,73.90
2022-12-08T16:58:02.561Z,78.00
2022-12-08T17:00:32.604Z,80.90
2022-12-08T17:03:00.805Z,83.00
2022-12-08T17:24:21.778Z,81.50
2022-12-08T17:26:50.443Z,84.10
2022-12-08T17:29:18.654Z,80.30
2022-12-08T17:31:47.435Z,73.60
2022-12-08T17:34:15.537Z,69.50
2022-12-08T17:36:43.925Z,74.00
2022-12-08T17:39:18.016Z,77.00
2022-12-08T17:41:47.733Z,79.40
2022-12-08T17:44:20.343Z,81.60
2022-12-08T17:46:53.001Z,83.00
2022-12-08T17:49:26.990Z,84.80
2022-12-08T17:51:57.314Z,81.00
2022-12-08T17:54:27.268Z,73.70
2022-12-08T17:56:56.285Z,73.90
2022-12-08T17:59:25.284Z,77.30
2022-12-08T18:01:54.818Z,80.00
2022-12-08T18:04:23.550Z,82.00
2022-12-08T18:06:51.721Z,83.50
2022-12-08T18:09:20.564Z,85.00
2022-12-08T18:11:48.902Z,77.40
2022-12-08T18:14:17.510Z,71.70
2022-12-08T18:16:47.140Z,73.20
2022-12-08T18:19:16.176Z,76.50
2022-12-08T18:21:44.798Z,79.30
2022-12-08T18:24:19.991Z,81.30
2022-12-08T18:26:48.714Z,82.90
2022-12-08T18:29:16.709Z,84.30
2022-12-08T18:31:45.141Z,78.00
2022-12-08T18:34:13.421Z,71.90
2022-12-08T18:36:41.546Z,74.80
2022-12-08T18:39:24.926Z,77.50
2022-12-08T18:41:53.850Z,79.70
2022-12-08T18:44:21.587Z,81.80
2022-12-08T18:46:49.954Z,82.80
2022-12-08T18:49:20.495Z,83.80
2022-12-08T18:51:49.004Z,75.00
2022-12-08T18:54:17.259Z,71.00
2022-12-08T18:56:45.778Z,76.20
2022-12-08T18:59:14.497Z,78.80
2022-12-08T19:01:42.612Z,80.50
2022-12-08T19:06:59.347Z,84.30
2022-12-08T19:09:27.895Z,78.90
2022-12-08T19:11:57.109Z,72.00
2022-12-08T19:14:28.100Z,73.00
2022-12-08T19:16:58.006Z,76.40
2022-12-08T19:19:27.228Z,79.10
2022-12-08T19:21:55.521Z,81.30
2022-12-08T19:24:24.798Z,82.60
2022-12-08T19:26:53.647Z,85.00
2022-12-08T19:29:21.559Z,77.00
2022-12-08T19:31:49.856Z,71.40
2022-12-08T19:34:19.811Z,75.20
2022-12-08T19:36:48.799Z,78.10
2022-12-08T19:39:19.874Z,80.10
2022-12-08T19:41:48.143Z,81.70
2022-12-08T19:44:25.472Z,83.20
2022-12-08T19:46:53.808Z,81.60
2022-12-08T19:49:22.132Z,74.20
2022-12-08T19:51:50.490Z,71.90
2022-12-08T19:54:18.842Z,76.20
2022-12-08T19:56:47.345Z,78.50
2022-12-08T19:59:15.611Z,80.80
2022-12-08T20:01:44.614Z,82.70
2022-12-08T20:04:17.538Z,84.00
2022-12-08T20:06:46.734Z,78.50
2022-12-08T20:09:15.854Z,71.50
2022-12-08T20:11:44.135Z,73.40
2022-12-08T20:14:12.426Z,76.50
2022-12-08T20:16:40.789Z,79.20
2022-12-08T20:19:09.626Z,80.70
2022-12-08T20:21:39.508Z,82.70
2022-12-08T20:24:08.652Z,84.30
2022-12-08T20:26:37.117Z,77.00
2022-12-08T20:29:05.425Z,71.30
2022-12-08T20:31:34.314Z,74.50
2022-12-08T20:34:03.136Z,77.10
2022-12-08T20:36:30.992Z,79.30
2022-12-08T20:39:01.212Z,81.30
2022-12-08T20:41:30.451Z,83.00
2022-12-08T20:44:00.968Z,83.50
2022-12-08T20:46:29.195Z,74.90
2022-12-08T20:48:57.655Z,69.60
2022-12-08T20:51:31.441Z,74.80
2022-12-08T20:54:00.934Z,77.80
2022-12-08T20:56:29.162Z,80.00
2022-12-08T20:58:57.411Z,82.00
2022-12-08T21:01:26.532Z,83.20
2022-12-08T21:03:55.146Z,80.60
2022-12-08T21:06:25.679Z,72.90
2022-12-08T21:08:54.104Z,71.00
2022-12-08T21:11:22.489Z,75.10
2022-12-08T21:13:50.963Z,77.80
2022-12-08T21:16:19.185Z,80.20
2022-12-08T21:21:04.915Z,82.00
2022-12-08T21:23:34.146Z,83.00
2022-12-08T21:26:03.228Z,78.30
2022-12-08T21:28:31.271Z,72.10
2022-12-08T21:30:59.756Z,71.60
2022-12-08T21:33:28.386Z,76.00
2022-12-08T21:36:05.078Z,78.20
2022-12-08T21:38:33.583Z,80.40
2022-12-08T21:41:10.994Z,81.60
2022-12-08T21:43:39.768Z,83.90
2022-12-08T21:46:14.193Z,77.00
2022-12-08T21:48:42.675Z,71.30
2022-12-08T21:51:10.971Z,73.40
2022-12-08T21:53:39.306Z,77.20
2022-12-08T21:56:11.076Z,79.00
2022-12-08T21:58:39.410Z,80.70
2022-12-08T22:01:09.737Z,82.80
2022-12-08T22:03:40.496Z,83.70
2022-12-08T22:06:11.885Z,76.80
2022-12-08T22:08:40.887Z,71.70
2022-12-08T22:11:10.774Z,73.90
2022-12-08T22:13:42.048Z,76.80
2022-12-08T22:16:13.093Z,79.40
2022-12-08T22:18:42.500Z,81.10
2022-12-08T22:21:16.047Z,82.60
2022-12-08T22:23:45.199Z,83.40
2022-12-08T22:26:14.091Z,74.80
2022-12-08T22:28:42.572Z,69.30
2022-12-08T22:31:19.569Z,74.30
2022-12-08T22:33:49.018Z,77.10
2022-12-08T22:36:23.389Z,79.80
2022-12-08T22:38:52.136Z,81.30
2022-12-08T22:41:21.194Z,82.40
2022-12-08T22:43:50.277Z,83.20
2022-12-08T22:46:27.261Z,74.50
2022-12-08T22:48:55.916Z,69.80
2022-12-08T22:51:24.307Z,75.20
2022-12-08T22:53:53.819Z,77.80
2022-12-08T22:56:22.192Z,79.50
2022-12-08T22:58:50.686Z,81.30
2022-12-08T23:01:26.307Z,83.10
2022-12-08T23:03:55.178Z,82.00
2022-12-08T23:06:24.663Z,73.70
2022-12-08T23:08:54.236Z,71.20
2022-12-08T23:11:25.787Z,75.90
2022-12-08T23:13:54.492Z,78.40
2022-12-08T23:16:23.494Z,80.40
2022-12-08T23:18:52.718Z,82.20
2022-12-08T23:21:21.539Z,82.70
2022-12-08T23:23:49.519Z,79.80
2022-12-08T23:26:24.381Z,72.40
2022-12-08T23:28:53.188Z,71.70
2022-12-08T23:31:22.256Z,75.90
2022-12-08T23:33:51.191Z,78.40
2022-12-08T23:36:19.975Z,79.80
2022-12-08T23:38:48.255Z,81.30
2022-12-08T23:41:17.292Z,82.80
2022-12-08T23:43:48.040Z,80.40
2022-12-08T23:46:19.045Z,73.50
2022-12-08T23:48:48.028Z,71.50
2022-12-08T23:51:15.917Z,75.50
2022-12-08T23:53:45.506Z,77.90
2022-12-08T23:56:22.111Z,80.10
2022-12-08T23:58:52.993Z,81.70
